Time;durP1;ratioP1;P1;durP2;ratioP2;P2;SDS_P1;SDS_P2;PMS_P1;PMS_P2;Temp;Humidity;BMP_temperature;BMP_pressure;BME280_temperature;BME280_humidity;BME280_pressure;Samples;Min_cycle;Max_cycle;Signal;HPM_P1;HPM_P2
2022/12/30 00:01:33;;;;;;;14.70;8.80;;;;;;;8.18;66.31;99579.88;100042;1287;137138;-71
2022/12/30 00:04:00;;;;;;;15.20;8.50;;;;;;;8.18;66.24;99582.30;100200;1281;107388;-71
2022/12/30 00:06:28;;;;;;;18.00;9.20;;;;;;;8.17;66.25;99579.91;100186;1294;96463;-71
2022/12/30 00:08:57;;;;;;;15.70;9.20;;;;;;;8.16;66.24;99581.86;100096;1287;137104;-71
2022/12/30 00:11:26;;;;;;;15.40;9.00;;;;;;;8.13;66.24;99583.69;100164;1288;96458;-71
2022/12/30 00:33:28;;;;;;;13.70;8.70;;;;;;;7.77;66.74;99596.08;100186;1288;137742;-71
2022/12/30 00:35:55;;;;;;;17.80;9.10;;;;;;;7.74;66.78;99596.89;100256;1285;106281;-71
2022/12/30 00:38:22;;;;;;;15.90;9.30;;;;;;;7.71;66.88;99599.55;100103;1280;137917;-72
2022/12/30 00:43:34;;;;;;;14.10;8.50;;;;;;;7.68;66.94;99600.33;100204;1288;137915;-71
2022/12/30 00:46:02;;;;;;;16.00;9.20;;;;;;;7.67;67.10;99597.95;100345;1288;96697;-71
2022/12/30 00:56:44;;;;;;;17.20;9.00;;;;;;;7.54;67.31;99604.05;100137;1287;138042;-72
2022/12/30 00:59:11;;;;;;;14.60;8.90;;;;;;;7.50;67.38;99604.17;100256;1288;96461;-72
2022/12/30 01:01:38;;;;;;;16.30;8.80;;;;;;;7.45;67.40;99608.65;100191;1288;137056;-73
2022/12/30 01:04:06;;;;;;;18.30;9.10;;;;;;;7.38;67.61;99614.58;100298;1288;96468;-73
2022/12/30 01:06:33;;;;;;;14.30;8.90;;;;;;;7.32;67.76;99618.36;100709;1288;109930;-73
2022/12/30 01:09:00;;;;;;;15.70;9.50;;;;;;;7.27;67.83;99619.71;100156;1289;137743;-72
2022/12/30 01:11:27;;;;;;;14.70;9.20;;;;;;;7.24;68.03;99623.79;100194;1281;96439;-73
2022/12/30 01:13:54;;;;;;;14.80;9.40;;;;;;;7.22;68.01;99625.92;100062;1287;137755;-72
2022/12/30 01:16:22;;;;;;;16.20;8.80;;;;;;;7.22;68.23;99623.86;100196;1288;96338;-72
2022/12/30 01:18:49;;;;;;;15.30;9.30;;;;;;;7.23;68.22;99619.52;100305;1288;110287;-71
2022/12/30 01:21:16;;;;;;;15.10;9.20;;;;;;;7.24;68.23;99616.88;99933;1291;137535;-72
2022/12/30 01:23:45;;;;;;;17.40;8.80;;;;;;;7.24;68.40;99611.69;100108;1288;96476;-72
2022/12/30 01:26:12;;;;;;;13.60;9.30;;;;;;;7.24;68.35;99613.41;100055;1287;137102;-72
2022/12/30 01:28:40;;;;;;;16.50;9.50;;;;;;;7.24;68.33;99607.52;100119;1284;96564;-72
2022/12/30 01:31:09;;;;;;;16.70;10.40;;;;;;;7.24;68.35;99609.10;100141;1288;137187;-72
2022/12/30 01:33:36;;;;;;;16.50;9.30;;;;;;;7.23;68.33;99603.77;100135;1290;107774;-72
2022/12/30 01:36:04;;;;;;;14.70;9.30;;;;;;;7.22;68.31;99606.04;100275;1283;95057;-73
2022/12/30 01:38:32;;;;;;;15.20;9.60;;;;;;;7.21;68.34;99604.19;99994;1290;136824;-73
2022/12/30 01:41:00;;;;;;;14.50;9.10;;;;;;;7.19;68.36;99611.33;100191;1295;96510;-73
2022/12/30 01:43:45;;;;;;;13.30;8.80;;;;;;;7.17;68.47;99612.72;100065;1288;139137;-72
2022/12/30 01:46:17;;;;;;;14.40;8.90;;;;;;;7.17;68.41;99613.77;100141;1290;107589;-73
2022/12/30 01:48:44;;;;;;;18.10;9.20;;;;;;;7.16;68.63;99615.55;100168;1288;96349;-73
2022/12/30 01:51:17;;;;;;;14.00;8.70;;;;;;;7.17;68.58;99616.89;100015;1291;139357;-72
2022/12/30 01:53:46;;;;;;;16.10;8.80;;;;;;;7.17;68.60;99617.23;100078;1281;96446;-73
2022/12/30 01:56:17;;;;;;;14.50;8.70;;;;;;;7.17;68.58;99616.88;100048;1288;137691;-74
2022/12/30 01:58:48;;;;;;;13.40;8.90;;;;;;;7.15;68.44;99618.84;100092;1295;107838;-73
2022/12/30 02:01:18;;;;;;;12.00;8.60;;;;;;;7.13;68.59;99626.86;100019;1280;137304;-72
2022/12/30 02:03:49;;;;;;;14.40;9.20;;;;;;;7.11;68.65;99630.72;100203;1294;106768;-73
2022/12/30 02:06:22;;;;;;;14.30;9.00;;;;;;;7.09;68.68;99637.85;100159;1288;96471;-73
2022/12/30 02:08:49;;;;;;;18.30;9.40;;;;;;;7.08;68.71;99636.34;100017;1284;136902;-72
2022/12/30 02:11:17;;;;;;;14.70;8.40;;;;;;;7.07;68.66;99620.47;100120;1288;107617;-72
2022/12/30 02:13:44;;;;;;;15.90;9.70;;;;;;;7.04;68.62;99619.52;100095;1290;137151;-73
2022/12/30 02:16:24;;;;;;;15.10;9.20;;;;;;;7.01;68.69;99621.16;100120;1274;106850;-72
2022/12/30 02:19:14;;;;;;;15.40;8.90;;;;;;;6.97;68.74;99620.90;100181;1296;97591;-71
2022/12/30 02:21:59;;;;;;;13.30;8.80;;;;;;;6.93;68.77;99622.38;100223;1281;111149;-71
2022/12/30 02:24:56;;;;;;;15.30;9.80;;;;;;;6.91;68.95;99624.36;100290;1280;106898;-71
2022/12/30 02:27:49;;;;;;;16.10;9.00;;;;;;;6.92;68.84;99628.30;100173;1281;137803;-71
2022/12/30 02:30:21;;;;;;;13.70;8.90;;;;;;;6.94;68.98;99633.08;100209;1289;106869;-71
2022/12/30 02:33:02;;;;;;;14.30;9.10;;;;;;;6.96;68.91;99636.14;100136;1288;137320;-71
2022/12/30 02:35:37;;;;;;;14.80;9.30;;;;;;;6.97;68.88;99638.18;100232;1285;109300;-70
2022/12/30 02:38:11;;;;;;;14.20;9.50;;;;;;;6.96;68.81;99645.48;100069;1288;137404;-71
2022/12/30 02:46:22;;;;;;;18.30;9.80;;;;;;;6.91;68.93;99647.86;100279;1287;96476;-73
2022/12/30 02:48:51;;;;;;;13.90;9.50;;;;;;;6.86;68.84;99646.64;100246;1288;109938;-73
2022/12/30 02:54:00;;;;;;;14.30;9.30;;;;;;;6.72;69.05;99640.95;99826;1293;96461;-74
2022/12/30 02:56:28;;;;;;;17.20;9.70;;;;;;;6.66;69.03;99637.65;99625;1295;137517;-71
2022/12/30 03:04:56;;;;;;;15.30;10.00;;;;;;;6.57;69.48;99647.38;99812;1287;106762;-72
2022/12/30 03:07:33;;;;;;;17.70;9.60;;;;;;;6.54;69.58;99655.21;99686;1292;139935;-73
2022/12/30 03:13:04;;;;;;;13.80;9.60;;;;;;;6.45;69.80;99648.88;99873;1295;96516;-71
2022/12/30 03:15:39;;;;;;;17.00;10.50;;;;;;;6.39;69.76;99650.58;99839;1287;109362;-71
2022/12/30 03:18:10;;;;;;;15.70;9.70;;;;;;;6.32;69.90;99660.08;99877;1295;107678;-72
2022/12/30 03:20:40;;;;;;;18.60;10.50;;;;;;;6.25;69.93;99663.86;99875;1293;136833;-71
2022/12/30 03:28:47;;;;;;;18.30;9.90;;;;;;;6.12;70.44;99667.66;99746;1294;108810;-72
2022/12/30 03:31:16;;;;;;;17.70;10.40;;;;;;;6.10;70.55;99669.75;99660;1293;137826;-72
2022/12/30 03:33:45;;;;;;;17.10;10.70;;;;;;;6.12;70.36;99670.07;100236;1289;96479;-72
2022/12/30 03:36:15;;;;;;;17.80;11.10;;;;;;;6.11;70.58;99671.65;100252;1289;106740;-73
2022/12/30 03:38:49;;;;;;;18.10;10.60;;;;;;;6.11;70.51;99671.98;100197;1288;137490;-72
2022/12/30 03:41:22;;;;;;;18.70;11.50;;;;;;;6.09;70.77;99676.33;100263;1284;109450;-72
2022/12/30 03:43:50;;;;;;;15.90;10.40;;;;;;;6.09;70.74;99668.04;100021;1282;138024;-72
2022/12/30 03:46:19;;;;;;;18.30;10.30;;;;;;;6.09;70.78;99675.11;100227;1289;96468;-72
2022/12/30 03:48:46;;;;;;;18.50;11.00;;;;;;;6.06;70.71;99679.33;100202;1289;107275;-73
2022/12/30 03:51:13;;;;;;;18.30;10.30;;;;;;;6.03;70.92;99679.23;100118;1288;137859;-71
2022/12/30 03:53:40;;;;;;;18.40;11.00;;;;;;;6.02;70.90;99680.96;100269;1289;110904;-72
2022/12/30 03:56:08;;;;;;;16.80;10.60;;;;;;;6.02;70.96;99679.76;100081;1288;138349;-72
2022/12/30 03:58:35;;;;;;;15.10;10.70;;;;;;;6.02;70.89;99677.34;100179;1289;96453;-71
2022/12/30 04:01:03;;;;;;;14.80;10.20;;;;;;;6.03;71.09;99682.52;100245;1292;106846;-72
2022/12/30 04:03:30;;;;;;;18.90;11.00;;;;;;;6.02;70.94;99688.57;99972;1290;137249;-72
2022/12/30 04:05:57;;;;;;;19.00;11.00;;;;;;;6.02;71.13;99690.98;100222;1292;109940;-72
2022/12/30 04:08:25;;;;;;;18.90;11.50;;;;;;;6.02;70.96;99695.64;99956;1288;137119;-72
2022/12/30 04:10:53;;;;;;;17.40;11.10;;;;;;;6.01;71.12;99694.47;100177;1289;96494;-73
2022/12/30 04:13:20;;;;;;;16.60;10.70;;;;;;;6.00;71.15;99699.48;100061;1293;137091;-72
2022/12/30 04:15:50;;;;;;;17.70;10.70;;;;;;;6.00;71.21;99699.49;100161;1288;96457;-72
2022/12/30 04:18:17;;;;;;;18.90;11.40;;;;;;;5.98;71.17;99694.89;100092;1287;109774;-72
2022/12/30 04:20:45;;;;;;;17.90;11.00;;;;;;;5.98;71.39;99695.23;99978;1287;138134;-72
2022/12/30 04:23:12;;;;;;;19.20;11.00;;;;;;;5.97;71.31;99690.08;100144;1286;96474;-72
2022/12/30 04:25:39;;;;;;;16.30;10.10;;;;;;;5.98;71.42;99691.61;100030;1288;137912;-72
2022/12/30 04:28:06;;;;;;;19.10;10.50;;;;;;;5.97;71.33;99691.45;100152;1283;96367;-72
2022/12/30 04:30:33;;;;;;;16.40;10.40;;;;;;;5.98;71.49;99693.49;100090;1291;107984;-72
2022/12/30 04:33:01;;;;;;;19.00;10.70;;;;;;;5.98;71.42;99694.55;100041;1297;138036;-72
2022/12/30 04:35:28;;;;;;;20.60;11.20;;;;;;;5.98;71.42;99697.30;100257;1282;95305;-72
2022/12/30 04:37:55;;;;;;;16.70;11.00;;;;;;;5.96;71.55;99693.54;100049;1281;137748;-72
2022/12/30 04:40:23;;;;;;;19.10;11.20;;;;;;;5.97;71.56;99697.83;100033;1291;96392;-72
2022/12/30 04:42:50;;;;;;;19.90;11.70;;;;;;;5.98;71.55;99690.73;100104;1291;109564;-73
2022/12/30 04:45:17;;;;;;;16.80;10.90;;;;;;;5.99;71.63;99691.92;100002;1290;139666;-72
2022/12/30 04:47:45;;;;;;;16.10;10.80;;;;;;;5.99;71.68;99693.98;100161;1291;96475;-72
2022/12/30 04:50:12;;;;;;;20.20;11.60;;;;;;;6.01;71.75;99690.14;100073;1288;137833;-72
2022/12/30 04:52:39;;;;;;;18.50;11.20;;;;;;;6.02;71.73;99686.67;100222;1290;96547;-72
2022/12/30 04:55:08;;;;;;;16.30;10.60;;;;;;;6.05;71.52;99688.68;100261;1284;109712;-72
2022/12/30 04:57:35;;;;;;;19.70;11.00;;;;;;;6.07;71.75;99689.49;100356;1281;108565;-71
2022/12/30 05:00:03;;;;;;;18.80;11.10;;;;;;;6.09;71.82;99689.11;100249;1295;96337;-72
2022/12/30 05:02:30;;;;;;;17.70;11.20;;;;;;;6.12;71.87;99693.01;100082;1289;138650;-72
2022/12/30 05:04:58;;;;;;;16.10;10.70;;;;;;;6.16;71.88;99697.95;100213;1281;96453;-72
2022/12/30 05:07:25;;;;;;;17.00;11.30;;;;;;;6.19;71.85;99701.83;100161;1285;139701;-72
2022/12/30 05:09:52;;;;;;;17.30;10.50;;;;;;;6.22;71.81;99706.60;100190;1287;107954;-72
2022/12/30 05:12:19;;;;;;;16.70;10.90;;;;;;;6.24;71.71;99708.59;100214;1288;96474;-72
2022/12/30 05:14:47;;;;;;;16.80;10.70;;;;;;;6.27;71.66;99711.30;100101;1282;137867;-72
2022/12/30 05:17:14;;;;;;;20.40;10.90;;;;;;;6.30;71.75;99710.73;100193;1280;96468;-72
2022/12/30 05:19:41;;;;;;;19.20;10.20;;;;;;;6.32;71.79;99707.55;100131;1294;137880;-71
2022/12/30 05:22:08;;;;;;;17.60;11.30;;;;;;;6.34;71.75;99709.75;100149;1288;107436;-72
2022/12/30 05:27:20;;;;;;;15.10;10.00;;;;;;;6.39;71.84;99712.23;99963;1287;137834;-72
2022/12/30 05:29:47;;;;;;;19.00;12.10;;;;;;;6.40;71.76;99711.34;100162;1288;96463;-72
2022/12/30 05:32:14;;;;;;;16.50;10.20;;;;;;;6.43;71.73;99712.47;100033;1286;137733;-72
2022/12/30 05:34:41;;;;;;;18.50;9.70;;;;;;;6.45;71.65;99712.77;100200;1290;108110;-72
2022/12/30 05:37:08;;;;;;;16.90;10.40;;;;;;;6.48;71.75;99720.49;100088;1286;97180;-72
2022/12/30 05:39:35;;;;;;;16.30;9.80;;;;;;;6.49;71.70;99724.61;100203;1288;107857;-72
2022/12/30 05:42:03;;;;;;;18.40;9.90;;;;;;;6.51;71.75;99724.20;100142;1289;96477;-72
2022/12/30 05:44:31;;;;;;;15.20;10.00;;;;;;;6.54;71.74;99728.62;100116;1288;137696;-72
2022/12/30 05:46:58;;;;;;;14.70;10.50;;;;;;;6.55;71.63;99739.98;100206;1291;107003;-72
2022/12/30 05:49:25;;;;;;;16.40;9.70;;;;;;;6.58;71.61;99741.48;100175;1285;138195;-73
2022/12/30 05:51:52;;;;;;;19.40;10.00;;;;;;;6.60;71.53;99749.02;100436;1294;106840;-71
2022/12/30 05:54:19;;;;;;;18.30;9.90;;;;;;;6.61;71.56;99756.76;100162;1287;96460;-71
2022/12/30 05:56:46;;;;;;;18.80;10.60;;;;;;;6.64;71.63;99757.23;100073;1289;137711;-71
2022/12/30 05:59:13;;;;;;;14.30;9.50;;;;;;;6.66;71.53;99752.86;100167;1294;107199;-71
2022/12/30 06:01:40;;;;;;;15.30;9.80;;;;;;;6.70;71.57;99754.35;100038;1285;138039;-70
2022/12/30 06:04:08;;;;;;;14.90;9.80;;;;;;;6.72;71.52;99754.11;100234;1294;106947;-71
2022/12/30 06:06:35;;;;;;;16.20;10.20;;;;;;;6.74;71.59;99753.70;100132;1281;96470;-73
2022/12/30 06:09:03;;;;;;;16.20;10.10;;;;;;;6.76;71.60;99754.88;100016;1286;138959;-71
2022/12/30 06:11:30;;;;;;;16.60;10.20;;;;;;;6.77;71.47;99753.80;100143;1288;107345;-71
2022/12/30 06:13:57;;;;;;;15.20;10.00;;;;;;;6.77;71.50;99757.27;100057;1294;137881;-71
2022/12/30 06:16:24;;;;;;;16.00;9.50;;;;;;;6.78;71.57;99760.34;100221;1288;107650;-73
2022/12/30 06:18:52;;;;;;;14.50;9.50;;;;;;;6.78;71.59;99763.45;100209;1281;96499;-72
2022/12/30 06:21:19;;;;;;;15.40;10.20;;;;;;;6.79;71.63;99760.84;100018;1287;139345;-72
2022/12/30 06:23:46;;;;;;;16.90;10.10;;;;;;;6.80;71.61;99762.20;100239;1290;106904;-72
2022/12/30 06:26:13;;;;;;;16.30;10.00;;;;;;;6.80;71.77;99767.89;100116;1291;138439;-72
2022/12/30 06:28:40;;;;;;;19.90;10.30;;;;;;;6.81;71.72;99768.04;100156;1298;108063;-70
2022/12/30 06:31:07;;;;;;;16.80;10.60;;;;;;;6.82;71.80;99765.27;100177;1291;96924;-72
2022/12/30 06:33:36;;;;;;;17.10;10.00;;;;;;;6.83;71.77;99771.46;100114;1288;137781;-72
2022/12/30 06:36:03;;;;;;;15.80;10.40;;;;;;;6.84;71.87;99777.14;100151;1289;107186;-72
2022/12/30 06:38:31;;;;;;;15.10;9.40;;;;;;;6.86;72.12;99785.20;100114;1293;137938;-71
2022/12/30 06:40:58;;;;;;;14.00;9.80;;;;;;;6.88;71.98;99790.54;100199;1288;107620;-73
2022/12/30 06:43:25;;;;;;;14.30;9.50;;;;;;;6.89;71.92;99789.11;100224;1288;137957;-70
2022/12/30 06:45:52;;;;;;;18.00;9.70;;;;;;;6.90;72.06;99797.21;100235;1294;109447;-71
2022/12/30 06:48:19;;;;;;;14.70;10.10;;;;;;;6.91;72.08;99803.75;100465;1295;108353;-70
2022/12/30 06:50:46;;;;;;;17.40;9.40;;;;;;;6.91;72.06;99803.75;100501;1289;138963;-71
2022/12/30 06:53:13;;;;;;;20.40;10.10;;;;;;;6.92;72.06;99801.81;100256;1296;107961;-71
2022/12/30 06:55:40;;;;;;;16.80;9.40;;;;;;;6.93;72.08;99804.56;100585;1294;138313;-74
2022/12/30 06:58:07;;;;;;;15.00;8.60;;;;;;;6.95;72.10;99813.85;100023;1296;110745;-74
2022/12/30 07:00:35;;;;;;;15.80;10.20;;;;;;;6.96;72.03;99817.27;100009;1290;106891;-73
2022/12/30 07:03:03;;;;;;;17.50;9.90;;;;;;;6.96;72.16;99825.57;100085;1288;137887;-74
2022/12/30 07:05:30;;;;;;;13.90;9.40;;;;;;;6.97;72.14;99827.77;100551;1288;107440;-70
2022/12/30 07:07:57;;;;;;;16.90;9.60;;;;;;;6.98;72.21;99828.10;100177;1287;137716;-73
2022/12/30 07:10:24;;;;;;;14.10;9.40;;;;;;;7.00;72.09;99823.92;100103;1286;110688;-73
2022/12/30 07:12:51;;;;;;;14.90;9.10;;;;;;;7.02;72.17;99825.46;100089;1288;107122;-72
2022/12/30 07:15:19;;;;;;;16.60;9.10;;;;;;;7.02;72.28;99837.37;100068;1288;137891;-71
2022/12/30 07:17:46;;;;;;;18.60;10.20;;;;;;;7.03;72.24;99843.23;100082;1278;106976;-72
2022/12/30 07:20:14;;;;;;;17.10;9.40;;;;;;;7.04;72.30;99853.23;100119;1289;138098;-71
2022/12/30 07:22:41;;;;;;;13.50;8.70;;;;;;;7.05;72.20;99854.59;100135;1288;109218;-71
2022/12/30 07:25:09;;;;;;;16.10;9.40;;;;;;;7.06;72.21;99865.44;100123;1288;106974;-71
2022/12/30 07:27:37;;;;;;;15.50;9.30;;;;;;;7.06;72.32;99867.19;100293;1288;96364;-72
2022/12/30 07:30:07;;;;;;;13.10;9.00;;;;;;;7.06;72.34;99868.39;100500;1286;107325;-71
2022/12/30 07:32:34;;;;;;;14.60;9.50;;;;;;;7.07;72.32;99874.23;100578;1296;137729;-72
2022/12/30 07:35:02;;;;;;;14.70;9.50;;;;;;;7.07;72.40;99877.52;100332;1284;109664;-72
2022/12/30 07:37:29;;;;;;;15.10;8.90;;;;;;;7.07;72.36;99878.73;100028;1293;138202;-72
2022/12/30 07:39:56;;;;;;;14.10;9.30;;;;;;;7.08;72.37;99869.88;100355;1293;96942;-72
2022/12/30 07:42:23;;;;;;;14.00;9.60;;;;;;;7.09;72.44;99872.13;100179;1292;106994;-71
2022/12/30 07:44:51;;;;;;;14.90;9.60;;;;;;;7.09;72.36;99883.52;100107;1292;137714;-71
2022/12/30 07:47:18;;;;;;;17.10;9.30;;;;;;;7.10;72.27;99889.37;100937;1282;109480;-70
2022/12/30 07:49:45;;;;;;;16.80;9.20;;;;;;;7.11;72.34;99888.15;100003;1281;138194;-71
2022/12/30 07:52:12;;;;;;;13.60;8.30;;;;;;;7.12;72.40;99892.79;100121;1285;98018;-71
2022/12/30 07:54:39;;;;;;;13.90;8.80;;;;;;;7.14;72.43;99892.54;100172;1287;107965;-72
2022/12/30 07:57:06;;;;;;;14.90;8.50;;;;;;;7.16;72.48;99893.18;100058;1285;138008;-71
2022/12/30 07:59:34;;;;;;;16.30;9.00;;;;;;;7.18;72.42;99898.52;100225;1284;109960;-70
2022/12/30 08:02:01;;;;;;;15.70;9.60;;;;;;;7.21;72.41;99904.34;99876;1297;139535;-72
2022/12/30 08:04:28;;;;;;;15.20;8.50;;;;;;;7.24;72.56;99906.17;100120;1285;98069;-71
2022/12/30 08:07:17;;;;;;;14.30;8.40;;;;;;;7.31;72.46;99908.23;100093;1293;137622;-72
2022/12/30 08:09:45;;;;;;;18.20;9.00;;;;;;;7.37;72.43;99917.10;100090;1289;96344;-71
2022/12/30 08:12:12;;;;;;;13.30;8.70;;;;;;;7.42;72.21;99917.16;100141;1287;110346;-70
2022/12/30 08:14:39;;;;;;;15.00;8.90;;;;;;;7.43;72.14;99914.70;100985;1293;137778;-69
2022/12/30 08:17:07;;;;;;;20.70;9.30;;;;;;;7.42;72.25;99913.84;101580;1285;95988;-70
2022/12/30 08:19:34;;;;;;;15.40;7.90;;;;;;;7.42;72.13;99916.28;101472;1294;138436;-72
2022/12/30 08:22:01;;;;;;;16.40;8.60;;;;;;;7.44;72.23;99921.59;101626;1299;94604;-70
2022/12/30 08:24:28;;;;;;;14.00;8.20;;;;;;;7.47;72.19;99923.75;101602;1289;111041;-70
2022/12/30 08:26:56;;;;;;;16.30;9.30;;;;;;;7.54;72.16;99928.44;101462;1282;139663;-71
2022/12/30 08:29:23;;;;;;;16.20;8.70;;;;;;;7.62;72.12;99929.45;101638;1286;94320;-71
2022/12/30 08:31:50;;;;;;;13.10;8.30;;;;;;;7.69;72.14;99935.48;100967;1287;137710;-71
2022/12/30 08:34:18;;;;;;;14.80;8.20;;;;;;;7.75;71.84;99935.02;100023;1283;97328;-69
2022/12/30 08:36:46;;;;;;;14.70;8.00;;;;;;;7.77;71.61;99931.47;100029;1283;109903;-70
2022/12/30 08:39:14;;;;;;;18.10;8.20;;;;;;;7.80;71.64;99936.77;99953;1286;137846;-70
2022/12/30 08:41:45;;;;;;;14.00;8.20;;;;;;;7.83;71.51;99951.40;99960;1281;97139;-69
2022/12/30 08:44:22;;;;;;;13.70;8.20;;;;;;;7.88;71.43;99955.42;99894;1286;137645;-69
2022/12/30 08:46:49;;;;;;;13.80;8.60;;;;;;;7.91;71.40;99957.44;100214;1288;96918;-68
2022/12/30 08:49:17;;;;;;;14.90;8.90;;;;;;;7.91;71.21;99958.65;99972;1289;138370;-70
2022/12/30 08:51:44;;;;;;;13.60;8.30;;;;;;;7.97;71.44;99966.64;100012;1287;109155;-70
2022/12/30 08:54:11;;;;;;;12.40;8.10;;;;;;;8.21;71.49;99968.24;100167;1286;96511;-69
2022/12/30 08:56:40;;;;;;;14.60;8.10;;;;;;;8.53;71.33;99970.33;100324;1287;137814;-70
2022/12/30 08:59:09;;;;;;;12.80;7.60;;;;;;;8.87;70.94;99968.83;100032;1286;96589;-70
2022/12/30 09:01:42;;;;;;;13.70;8.40;;;;;;;9.26;70.69;99969.89;99924;1288;137879;-69
2022/12/30 09:04:10;;;;;;;13.00;8.20;;;;;;;9.69;70.18;99967.65;100054;1283;107222;-69
2022/12/30 09:06:40;;;;;;;12.40;7.60;;;;;;;10.07;69.48;99962.17;100006;1290;96473;-70
2022/12/30 09:09:10;;;;;;;13.30;7.50;;;;;;;10.46;68.76;99965.70;99977;1287;137992;-70
2022/12/30 09:11:39;;;;;;;15.90;7.90;;;;;;;10.81;67.77;99973.10;100021;1287;96540;-70
2022/12/30 09:14:09;;;;;;;19.80;10.10;;;;;;;11.17;67.67;99976.77;99592;1282;367800;-71
2022/12/30 09:16:37;;;;;;;10.90;6.90;;;;;;;11.60;67.05;99982.39;99922;1285;107169;-70
2022/12/30 09:19:05;;;;;;;12.80;7.00;;;;;;;11.84;65.42;99981.23;100067;1286;96936;-70
2022/12/30 09:21:32;;;;;;;10.80;6.70;;;;;;;11.95;64.89;99972.77;99944;1296;137027;-70
2022/12/30 09:24:00;;;;;;;11.60;7.40;;;;;;;12.08;64.47;99977.08;100107;1289;96547;-69
2022/12/30 09:26:29;;;;;;;12.30;6.50;;;;;;;12.25;64.11;99974.45;100059;1284;137356;-70
2022/12/30 09:28:58;;;;;;;9.70;6.20;;;;;;;12.41;63.91;99969.03;99981;1294;107371;-69
2022/12/30 09:31:26;;;;;;;13.30;6.40;;;;;;;12.57;63.58;99972.67;99908;1289;137607;-70
2022/12/30 09:33:53;;;;;;;10.80;5.90;;;;;;;12.74;62.92;99974.00;100009;1290;106840;-69
2022/12/30 09:36:20;;;;;;;11.40;6.30;;;;;;;12.80;62.56;99972.20;100059;1282;96467;-70
2022/12/30 09:38:48;;;;;;;10.90;5.80;;;;;;;12.88;62.22;99973.16;100036;1283;137282;-71
2022/12/30 09:43:15;;;;;;;10.00;5.70;;;;;;;12.99;61.85;99969.73;100075;1291;107628;-71
2022/12/30 09:44:20;;;;;;;11.10;5.10;;;;;;;13.09;61.17;99965.59;99943;1295;137377;-70
2022/12/30 09:46:50;;;;;;;7.90;4.80;;;;;;;13.16;61.04;99974.50;100002;1285;107994;-72
2022/12/30 09:49:30;;;;;;;7.70;5.10;;;;;;;13.27;60.89;99972.27;100594;1289;137350;-70
2022/12/30 09:52:02;;;;;;;12.90;4.80;;;;;;;13.42;60.52;99980.14;101115;1291;111010;-70
2022/12/30 09:54:32;;;;;;;7.20;4.60;;;;;;;13.57;60.11;99988.61;100024;1286;108567;-72
2022/12/30 09:57:30;;;;;;;9.60;4.80;;;;;;;13.64;59.47;99984.95;99871;1290;138656;-71
2022/12/30 09:59:56;;;;;;;9.00;4.50;;;;;;;13.66;59.15;99978.43;100673;1287;107873;-67
2022/12/30 10:02:28;;;;;;;9.70;5.00;;;;;;;13.71;59.09;99979.23;99975;1286;137208;-68
2022/12/30 10:04:57;;;;;;;9.50;4.80;;;;;;;13.77;58.95;99978.91;100104;1288;111693;-70
2022/12/30 10:07:30;;;;;;;9.30;4.20;;;;;;;13.77;58.50;99975.92;100430;1296;138283;-69
2022/12/30 10:10:03;;;;;;;11.00;4.40;;;;;;;13.82;58.59;99976.04;99964;1281;96502;-69
2022/12/30 10:12:45;;;;;;;10.40;4.50;;;;;;;13.89;57.66;99980.07;99987;1288;107945;-70
2022/12/30 10:15:39;;;;;;;9.70;4.50;;;;;;;13.85;57.45;99981.33;99918;1287;137487;-70
2022/12/30 10:18:21;;;;;;;10.90;3.80;;;;;;;13.78;57.41;99991.11;99944;1289;110607;-70
2022/12/30 10:20:57;;;;;;;10.30;5.00;;;;;;;13.76;57.67;99995.93;99795;1287;137320;-70
2022/12/30 10:23:36;;;;;;;7.60;4.40;;;;;;;13.77;57.41;100000.77;99936;1287;96501;-70
2022/12/30 10:26:11;;;;;;;7.50;4.00;;;;;;;13.72;57.02;99999.10;99851;1288;138905;-70
2022/12/30 10:28:43;;;;;;;9.60;3.70;;;;;;;13.61;56.92;100003.27;99893;1288;96451;-70
2022/12/30 10:31:19;;;;;;;6.60;3.90;;;;;;;13.55;56.65;100000.10;100183;1287;110135;-69
2022/12/30 10:33:48;;;;;;;10.40;3.90;;;;;;;13.40;56.63;100000.64;99961;1297;108532;-69
2022/12/30 10:36:21;;;;;;;9.00;4.10;;;;;;;13.35;56.63;99999.34;99943;1283;97043;-69
2022/12/30 10:38:49;;;;;;;11.60;4.40;;;;;;;13.27;56.75;100006.84;100056;1281;136985;-70
2022/12/30 10:41:32;;;;;;;12.50;3.90;;;;;;;13.20;57.04;100007.15;100028;1285;96463;-71
2022/12/30 10:44:17;;;;;;;11.30;4.10;;;;;;;13.13;57.04;100005.92;100056;1289;138358;-68
2022/12/30 10:47:07;;;;;;;10.80;4.10;;;;;;;13.10;57.32;100005.52;100134;1284;107698;-69
2022/12/30 10:49:54;;;;;;;7.50;3.90;;;;;;;13.09;57.17;100002.59;100046;1288;138094;-69
2022/12/30 10:52:23;;;;;;;9.40;4.20;;;;;;;13.12;57.43;100002.62;100114;1289;107573;-69
2022/12/30 10:54:50;;;;;;;12.50;4.40;;;;;;;13.18;57.16;99996.42;100165;1294;96471;-69
2022/12/30 10:57:22;;;;;;;9.80;3.60;;;;;;;13.21;57.20;99996.45;100003;1284;137956;-69
2022/12/30 10:59:50;;;;;;;7.70;3.80;;;;;;;13.26;56.71;99997.98;100044;1287;107868;-67
2022/12/30 11:02:23;;;;;;;9.90;4.00;;;;;;;13.22;56.73;100005.30;100035;1297;137570;-68
2022/12/30 11:04:51;;;;;;;7.30;3.40;;;;;;;13.20;56.38;100011.15;100153;1289;105763;-68
2022/12/30 11:07:20;;;;;;;8.10;3.20;;;;;;;13.19;55.90;100008.95;100245;1298;96439;-68
2022/12/30 11:09:48;;;;;;;11.00;3.10;;;;;;;13.18;55.29;100022.10;100264;1288;110765;-70
2022/12/30 11:15:17;;;;;;;8.40;3.00;;;;;;;13.10;55.01;100034.82;100080;1297;137549;-68
2022/12/30 11:17:49;;;;;;;7.30;3.10;;;;;;;13.11;55.51;100040.39;100228;1289;107895;-68
2022/12/30 11:20:37;;;;;;;7.40;3.00;;;;;;;13.13;55.25;100043.09;100166;1290;137711;-67
2022/12/30 11:23:08;;;;;;;9.30;3.10;;;;;;;13.18;55.31;100046.00;100242;1292;110701;-68
2022/12/30 11:25:37;;;;;;;8.80;3.30;;;;;;;13.24;54.59;100049.58;100204;1287;137951;-69
2022/12/30 11:28:07;;;;;;;11.70;3.10;;;;;;;13.23;54.42;100056.25;100199;1291;96476;-69
2022/12/30 11:30:36;;;;;;;6.90;2.90;;;;;;;13.22;53.90;100054.20;100112;1289;107542;-69
2022/12/30 11:33:06;;;;;;;8.90;2.70;;;;;;;13.12;53.57;100054.48;100425;1288;137525;-68
2022/12/30 11:35:44;;;;;;;12.70;3.60;;;;;;;13.02;53.49;100060.48;100003;1287;109063;-71
2022/12/30 11:38:31;;;;;;;7.30;2.70;;;;;;;12.91;53.32;100063.08;100296;1284;138749;-68
2022/12/30 11:41:13;;;;;;;11.60;3.50;;;;;;;12.81;53.38;100069.66;100361;1295;96644;-68
2022/12/30 11:43:41;;;;;;;9.50;3.30;;;;;;;12.74;53.60;100074.32;100155;1291;138122;-67
2022/12/30 11:46:14;;;;;;;10.50;3.40;;;;;;;12.63;53.70;100076.02;100072;1288;96594;-68
2022/12/30 11:48:47;;;;;;;9.20;3.30;;;;;;;12.54;54.12;100078.48;100181;1294;109883;-68
2022/12/30 11:51:21;;;;;;;9.00;3.30;;;;;;;12.50;54.15;100076.20;100002;1287;137420;-69
2022/12/30 11:53:49;;;;;;;11.10;3.70;;;;;;;12.42;54.04;100071.70;100139;1289;96392;-69
2022/12/30 11:56:23;;;;;;;11.70;3.60;;;;;;;12.32;54.31;100082.23;100292;1289;137995;-69
2022/12/30 11:58:50;;;;;;;10.90;3.50;;;;;;;12.28;54.74;100083.27;100997;1297;96737;-69
2022/12/30 12:01:18;;;;;;;12.70;3.80;;;;;;;12.24;54.40;100086.21;100228;1285;111099;-68
2022/12/30 12:03:52;;;;;;;15.00;4.50;;;;;;;12.16;54.42;100082.03;100738;1291;107530;-70
2022/12/30 12:06:20;;;;;;;11.20;3.70;;;;;;;12.08;54.49;100078.52;100569;1288;96331;-68
2022/12/30 12:08:57;;;;;;;9.40;3.60;;;;;;;12.00;54.65;100080.92;100112;1281;137558;-67
2022/12/30 12:11:30;;;;;;;8.30;3.10;;;;;;;11.91;54.72;100075.05;100394;1281;96471;-68
2022/12/30 12:14:07;;;;;;;9.30;3.70;;;;;;;11.83;54.92;100077.42;99982;1287;137378;-67
2022/12/30 12:16:43;;;;;;;11.00;4.10;;;;;;;11.77;55.06;100078.87;100069;1282;108708;-65
2022/12/30 12:19:19;;;;;;;7.50;3.40;;;;;;;11.71;55.20;100087.29;100136;1282;97207;-69
2022/12/30 12:21:51;;;;;;;9.00;3.80;;;;;;;11.66;55.87;100088.00;100454;1284;107498;-67
2022/12/30 12:24:24;;;;;;;10.00;3.50;;;;;;;11.70;55.77;100085.77;99996;1281;96459;-67
2022/12/30 12:26:57;;;;;;;12.10;3.70;;;;;;;11.70;55.76;100088.23;99973;1288;137156;-69
2022/12/30 12:29:25;;;;;;;10.60;3.30;;;;;;;11.70;55.98;100087.54;99965;1285;109390;-70